createdAt,value
2018-09-10T00:00:12.043Z,67.38
2018-09-10T00:00:52.415Z,67.19
2018-09-10T00:01:32.847Z,67.29
2018-09-10T00:02:13.162Z,67.47
2018-09-10T00:02:53.665Z,67.09
2018-09-10T00:03:34.006Z,67.09
2018-09-10T00:04:14.487Z,67.29
2018-09-10T00:04:54.887Z,67.38
2018-09-10T00:05:35.262Z,67.09
2018-09-10T00:06:15.677Z,67.29
2018-09-10T00:06:56.101Z,67.09
2018-09-10T00:07:36.494Z,67.19
2018-09-10T00:08:16.942Z,67.19
2018-09-10T00:08:57.272Z,67.09
2018-09-10T00:09:37.671Z,67.09
2018-09-10T00:10:18.161Z,67.38
2018-09-10T00:10:58.577Z,67.09
2018-09-10T00:11:38.888Z,67.29
2018-09-10T00:12:19.362Z,66.52
2018-09-10T00:12:59.717Z,66.61
2018-09-10T00:13:40.204Z,66.61
2018-09-10T00:14:20.585Z,66.9
2018-09-10T00:15:00.984Z,66.9
2018-09-10T00:15:41.431Z,66.52
2018-09-10T00:16:21.828Z,66.61
2018-09-10T00:17:02.215Z,66.93
2018-09-10T00:17:42.622Z,66.42
2018-09-10T00:18:23.040Z,66.26
2018-09-10T00:19:03.449Z,66.23
2018-09-10T00:19:43.829Z,66.46
2018-09-10T00:20:24.223Z,66.33
2018-09-10T00:21:04.585Z,66.23
2018-09-10T00:21:45.024Z,66.23
2018-09-10T00:22:25.408Z,66.33
2018-09-10T00:23:05.881Z,66.8
2018-09-10T00:23:46.199Z,66.74
2018-09-10T00:24:26.619Z,66.07
2018-09-10T00:25:07.044Z,66.36
2018-09-10T00:25:47.485Z,66.16
2018-09-10T00:26:27.906Z,65.97
2018-09-10T00:27:08.251Z,66.13
2018-09-10T00:27:48.719Z,66.03
2018-09-10T00:28:29.111Z,66.03
2018-09-10T00:29:09.541Z,66.23
2018-09-10T00:29:49.921Z,66.33
2018-09-10T00:30:30.301Z,66.03
2018-09-10T00:31:10.731Z,66.13
2018-09-10T00:31:51.127Z,66.13
2018-09-10T00:32:31.570Z,66.23
2018-09-10T00:33:11.960Z,66.03
2018-09-10T00:33:52.376Z,66.23
2018-09-10T00:34:32.737Z,66.23
2018-09-10T00:35:13.139Z,66.03
2018-09-10T00:35:53.541Z,66.71
2018-09-10T00:36:34.035Z,66.71
2018-09-10T00:37:14.382Z,66.8
2018-09-10T00:37:54.768Z,66.52
2018-09-10T00:38:35.170Z,66.61
2018-09-10T00:39:15.545Z,66.8
2018-09-10T00:39:55.983Z,66.33
2018-09-10T00:40:36.362Z,66.61
2018-09-10T00:41:16.745Z,66.61
2018-09-10T00:41:57.193Z,67.09
2018-09-10T00:42:37.585Z,67.19
2018-09-10T00:43:17.927Z,67.19
2018-09-10T00:43:58.361Z,67.29
2018-09-10T00:44:38.764Z,67.25
2018-09-10T00:45:19.162Z,67.35
2018-09-10T00:45:59.596Z,67.09
2018-09-10T00:46:39.973Z,67.09
2018-09-10T00:47:20.361Z,67.29
2018-09-10T00:48:00.778Z,67.29
2018-09-10T00:48:41.179Z,67.19
2018-09-10T00:49:21.566Z,67.19
2018-09-10T00:50:01.987Z,66.9
2018-09-10T00:50:42.330Z,67.35
2018-09-10T00:51:22.751Z,67.38
2018-09-10T00:52:03.243Z,67.38
2018-09-10T00:52:43.589Z,66.71
2018-09-10T00:53:24.077Z,66.71
2018-09-10T00:54:04.469Z,66.61
2018-09-10T00:54:44.852Z,66.86
2018-09-10T00:55:25.248Z,66.61
2018-09-10T00:56:05.649Z,66.52
2018-09-10T00:56:46.098Z,66.9
2018-09-10T00:57:26.458Z,66.42
2018-09-10T00:58:06.872Z,66.61
2018-09-10T00:58:47.341Z,66.67
2018-09-10T00:59:27.728Z,66.58
2018-09-10T01:00:08.116Z,66.58
2018-09-10T01:00:48.525Z,67.47
2018-09-10T01:01:28.897Z,66.71
2018-09-10T01:02:09.380Z,66.9
2018-09-10T01:02:49.740Z,66.77
2018-09-10T01:03:30.283Z,67.25
2018-09-10T01:04:10.635Z,67.06
2018-09-10T01:04:51.077Z,67.25
2018-09-10T01:05:31.418Z,67.16
2018-09-10T01:06:11.930Z,67.25
2018-09-10T01:06:52.307Z,67.06
2018-09-10T01:07:32.733Z,67.35
2018-09-10T01:08:13.098Z,67.16
2018-09-10T01:08:53.527Z,67.54
2018-09-10T01:09:33.873Z,67.73
2018-09-10T01:10:14.382Z,67.44
2018-09-10T01:10:54.710Z,68.21
2018-09-10T01:11:35.153Z,67.73
2018-09-10T01:12:15.519Z,67.73
2018-09-10T01:12:55.961Z,67.73
2018-09-10T01:13:36.370Z,67.83
2018-09-10T01:14:16.735Z,67.25
2018-09-10T01:14:57.149Z,67.44
2018-09-10T01:15:37.537Z,67.63
2018-09-10T01:16:18.001Z,67.73
2018-09-10T01:16:58.394Z,67.63
2018-09-10T01:17:38.715Z,67.09
2018-09-10T01:18:19.175Z,67.38
2018-09-10T01:18:59.603Z,67.09
2018-09-10T01:19:39.980Z,66.71
2018-09-10T01:20:20.372Z,66.49
2018-09-10T01:21:00.780Z,67.25
2018-09-10T01:21:41.236Z,66.61
2018-09-10T01:22:21.641Z,66.61
2018-09-10T01:23:02.043Z,66.52
2018-09-10T01:23:42.402Z,67.38
2018-09-10T01:24:22.852Z,67.29
2018-09-10T01:25:03.187Z,67.38
2018-09-10T01:25:43.642Z,66.61
2018-09-10T01:26:24.057Z,66.52
2018-09-10T01:27:04.451Z,66.52
2018-09-10T01:27:44.828Z,67.29
2018-09-10T01:28:25.259Z,66.9
2018-09-10T01:29:05.636Z,66.61
2018-09-10T01:29:46.138Z,66.71
2018-09-10T01:30:26.576Z,66.8
2018-09-10T01:31:06.883Z,66.42
2018-09-10T01:31:47.281Z,66.23
2018-09-10T01:32:27.671Z,66.8
2018-09-10T01:33:08.063Z,66.33
2018-09-10T01:33:48.450Z,66.03
2018-09-10T01:34:28.866Z,66.03
2018-09-10T01:35:09.238Z,65.94
2018-09-10T01:35:49.627Z,66.03
2018-09-10T01:36:29.958Z,66.03
2018-09-10T01:37:10.408Z,66.03
2018-09-10T01:37:50.848Z,65.94
2018-09-10T01:38:31.206Z,66.33
2018-09-10T01:39:11.641Z,66.33
2018-09-10T01:39:51.998Z,66.42
2018-09-10T01:40:32.452Z,66.61
2018-09-10T01:41:12.792Z,66.42
2018-09-10T01:41:53.215Z,66.42
2018-09-10T01:42:33.606Z,66.33
2018-09-10T01:43:14.014Z,66.52
2018-09-10T01:43:54.392Z,67.19
2018-09-10T01:44:34.867Z,67
2018-09-10T01:45:15.231Z,66.61
2018-09-10T01:45:55.646Z,66.13
2018-09-10T01:46:36.066Z,66.13
2018-09-10T01:47:16.508Z,66.23
2018-09-10T01:47:56.873Z,66.52
2018-09-10T01:48:37.304Z,66.33
2018-09-10T01:49:17.668Z,66.52
2018-09-10T01:49:58.092Z,66.52
2018-09-10T01:50:38.507Z,66.23
2018-09-10T01:51:18.947Z,65.69
2018-09-10T01:51:59.377Z,65.49
2018-09-10T01:52:39.804Z,65.59
2018-09-10T01:53:20.227Z,65.3
2018-09-10T01:54:00.638Z,65.11
2018-09-10T01:54:41.010Z,64.53
2018-09-10T01:55:21.527Z,64.15
2018-09-10T01:56:01.831Z,63.76
2018-09-10T01:56:42.272Z,63.86
2018-09-10T01:57:22.659Z,64.05
2018-09-10T01:58:03.065Z,64.25
2018-09-10T01:58:43.439Z,64.25
2018-09-10T01:59:23.866Z,64.15
2018-09-10T02:00:04.298Z,64.15
2018-09-10T02:00:44.669Z,64.25
2018-09-10T02:01:25.097Z,64.25
2018-09-10T02:02:05.468Z,64.15
2018-09-10T02:02:45.886Z,63.67
2018-09-10T02:03:26.316Z,64.25
2018-09-10T02:04:06.605Z,64.25
2018-09-10T02:04:47.119Z,64.25
2018-09-10T02:05:27.501Z,64.34
2018-09-10T02:06:07.901Z,64.43
2018-09-10T02:06:48.301Z,64.15
2018-09-10T02:07:28.728Z,64.15
2018-09-10T02:08:09.217Z,64.05
2018-09-10T02:08:49.542Z,64.05
2018-09-10T02:09:29.898Z,64.25
2018-09-10T02:10:10.332Z,64.25
2018-09-10T02:10:50.748Z,64.25
2018-09-10T02:11:31.149Z,64.53
2018-09-10T02:12:11.523Z,64.92
2018-09-10T02:12:51.934Z,65.2
2018-09-10T02:13:32.351Z,65.11
2018-09-10T02:14:12.676Z,65.3
2018-09-10T02:14:53.141Z,65.01
2018-09-10T02:15:33.577Z,64.63
2018-09-10T02:16:13.950Z,64.53
2018-09-10T02:16:54.413Z,65.3
2018-09-10T02:17:34.760Z,65.11
2018-09-10T02:18:15.097Z,65.2
2018-09-10T02:18:55.588Z,65.49
2018-09-10T02:19:36.004Z,65.3
2018-09-10T02:20:16.439Z,65.27
2018-09-10T02:20:56.790Z,65.36
2018-09-10T02:21:37.162Z,65.56
2018-09-10T02:22:17.669Z,65.46
2018-09-10T02:22:57.973Z,65.75
2018-09-10T02:23:38.455Z,65.75
2018-09-10T02:24:18.837Z,65.94
2018-09-10T02:24:59.273Z,65.94
2018-09-10T02:25:39.711Z,65.97
2018-09-10T02:26:20.011Z,65.84
2018-09-10T02:27:00.458Z,65.56
2018-09-10T02:27:40.904Z,65.56
2018-09-10T02:28:21.272Z,65.84
2018-09-10T02:29:01.652Z,66.13
2018-09-10T02:29:42.043Z,65.65
2018-09-10T02:30:22.525Z,66.03
2018-09-10T02:31:02.897Z,66.33
2018-09-10T02:31:43.332Z,66.8
2018-09-10T02:32:23.778Z,66.52
2018-09-10T02:33:04.135Z,66.61
2018-09-10T02:33:44.525Z,66.52
2018-09-10T02:34:24.906Z,66.13
2018-09-10T02:35:05.267Z,66.42
2018-09-10T02:35:45.714Z,66.33
2018-09-10T02:36:26.049Z,66.33
2018-09-10T02:37:06.540Z,66.61
2018-09-10T02:37:46.934Z,66.9
2018-09-10T02:38:27.333Z,66.9
2018-09-10T02:39:07.743Z,67.38
2018-09-10T02:39:48.146Z,67.19
2018-09-10T02:40:28.584Z,67.19
2018-09-10T02:41:08.987Z,67.47
2018-09-10T02:41:49.335Z,67.16
2018-09-10T02:42:29.756Z,67.57
2018-09-10T02:43:10.220Z,67.54
2018-09-10T02:43:50.568Z,67.76
2018-09-10T02:44:31.001Z,67.76
2018-09-10T02:45:11.399Z,67.54
2018-09-10T02:45:51.826Z,67.92
2018-09-10T02:46:32.176Z,67.86
2018-09-10T02:47:12.541Z,67.96
2018-09-10T02:47:53.020Z,67.83
2018-09-10T02:48:33.379Z,68.34
2018-09-10T02:49:13.768Z,68.53
2018-09-10T02:49:54.173Z,68.63
2018-09-10T02:50:34.542Z,67.96
2018-09-10T02:51:14.972Z,68.15
2018-09-10T02:51:55.416Z,68.24
2018-09-10T02:52:35.793Z,67.86
2018-09-10T02:53:16.261Z,68.15
2018-09-10T02:53:56.692Z,68.44
2018-09-10T02:54:37.109Z,68.59
2018-09-10T02:55:17.594Z,68.91
2018-09-10T02:55:57.814Z,68.82
2018-09-10T02:56:38.244Z,68.12
2018-09-10T02:57:18.627Z,68.98
2018-09-10T02:57:59.021Z,68.59
2018-09-10T02:58:39.420Z,68.4
2018-09-10T02:59:19.836Z,68.69
2018-09-10T03:00:00.261Z,68.4
2018-09-10T03:00:40.653Z,68.88
2018-09-10T03:01:21.037Z,69.07
2018-09-10T03:02:01.432Z,69.17
2018-09-10T03:02:41.769Z,68.98
2018-09-10T03:03:22.202Z,69.36
2018-09-10T03:04:02.675Z,69.36
2018-09-10T03:04:43.272Z,69.65
2018-09-10T03:05:23.717Z,69.36
2018-09-10T03:06:04.045Z,69.36
2018-09-10T03:06:44.511Z,70.03
2018-09-10T03:07:24.916Z,69.84
2018-09-10T03:08:05.313Z,70.03
2018-09-10T03:08:45.743Z,69.93
2018-09-10T03:09:26.139Z,70
2018-09-10T03:10:06.595Z,70.42
2018-09-10T03:10:46.988Z,70.32
2018-09-10T03:11:27.529Z,70.48
2018-09-10T03:12:08.050Z,70.19
2018-09-10T03:12:48.420Z,70.86
2018-09-10T03:13:28.900Z,70.76
2018-09-10T03:14:09.339Z,70.76
2018-09-10T03:14:49.776Z,70.86
2018-09-10T03:15:30.185Z,71.15
2018-09-10T03:16:10.667Z,71.44
2018-09-10T03:16:51.149Z,71.53
2018-09-10T03:17:31.534Z,72.11
2018-09-10T03:18:11.959Z,71.72
2018-09-10T03:18:52.485Z,71.63
2018-09-10T03:19:33.075Z,71.63
2018-09-10T03:20:13.388Z,71.92
2018-09-10T03:20:53.914Z,72.01
2018-09-10T03:21:34.445Z,71.92
2018-09-10T03:22:15.002Z,72.2
2018-09-10T03:22:55.473Z,72.11
2018-09-10T03:23:35.808Z,72.3
2018-09-10T03:24:16.247Z,71.92
2018-09-10T03:24:56.667Z,72.11
2018-09-10T03:25:37.036Z,71.92
2018-09-10T03:26:17.522Z,72.59
2018-09-10T03:26:57.898Z,72.39
2018-09-10T03:27:38.355Z,72.01
2018-09-10T03:28:18.689Z,71.92
2018-09-10T03:28:59.145Z,71.92
2018-09-10T03:29:39.539Z,72.01
2018-09-10T03:30:19.895Z,72.11
2018-09-10T03:31:00.334Z,72.78
2018-09-10T03:31:40.656Z,72.01
2018-09-10T03:32:21.087Z,72.68
2018-09-10T03:33:01.609Z,72.11
2018-09-10T03:33:41.954Z,72.39
2018-09-10T03:34:22.406Z,71.98
2018-09-10T03:35:02.814Z,72.49
2018-09-10T03:35:43.212Z,72.97
2018-09-10T03:36:23.578Z,73.93
2018-09-10T03:37:03.997Z,73.26
2018-09-10T03:37:44.395Z,73.07
2018-09-10T03:38:24.760Z,72.3
2018-09-10T03:39:05.158Z,72.59
2018-09-10T03:39:45.558Z,72.78
2018-09-10T03:40:25.932Z,72.39
2018-09-10T03:41:06.410Z,72.97
2018-09-10T03:41:46.851Z,72.78
2018-09-10T03:42:27.211Z,72.88
2018-09-10T03:43:07.642Z,72.78
2018-09-10T03:43:48.019Z,72.78
2018-09-10T03:44:28.422Z,73.35
2018-09-10T03:45:08.802Z,73.45
2018-09-10T03:45:49.209Z,73.16
2018-09-10T03:46:29.609Z,72.78
2018-09-10T03:47:10.148Z,72.97
2018-09-10T03:47:50.450Z,73.35
2018-09-10T03:48:30.833Z,73.45
2018-09-10T03:49:11.283Z,72.88
2018-09-10T03:49:51.673Z,72.97
2018-09-10T03:50:32.105Z,73.07
2018-09-10T03:51:12.439Z,73.16
2018-09-10T03:51:52.846Z,73.07
2018-09-10T03:52:33.264Z,73.16
2018-09-10T03:53:13.599Z,73.45
2018-09-10T03:53:54.083Z,73.35
2018-09-10T03:54:34.484Z,72.88
2018-09-10T03:55:14.912Z,72.88
2018-09-10T03:55:55.270Z,73.35
2018-09-10T03:56:35.713Z,73.07
2018-09-10T03:57:16.201Z,73.07
2018-09-10T03:57:56.660Z,73.07
2018-09-10T03:58:36.981Z,73.07
2018-09-10T03:59:17.394Z,73.45
2018-09-10T03:59:57.810Z,73.16
2018-09-10T04:00:38.254Z,73.45
2018-09-10T04:01:18.674Z,73.74
2018-09-10T04:01:59.159Z,73.83
2018-09-10T04:02:39.474Z,73.55
2018-09-10T04:03:19.952Z,74.22
2018-09-10T04:04:00.305Z,73.74
2018-09-10T04:04:40.708Z,73.45
2018-09-10T04:05:21.103Z,73.83
2018-09-10T04:06:01.485Z,73.26
2018-09-10T04:06:41.883Z,73.16
2018-09-10T04:07:22.386Z,73.16
2018-09-10T04:08:02.717Z,73.74
2018-09-10T04:08:43.074Z,73.65
2018-09-10T04:09:23.518Z,73.65
2018-09-10T04:10:03.918Z,73.65
2018-09-10T04:10:44.284Z,73.65
2018-09-10T04:11:24.680Z,73.74
2018-09-10T04:12:06.907Z,73.65
2018-09-10T04:12:47.247Z,73.1
2018-09-10T04:13:27.759Z,73.07
2018-09-10T04:14:08.112Z,73.49
2018-09-10T04:14:48.486Z,72.88
2018-09-10T04:15:28.864Z,72.97
2018-09-10T04:16:09.300Z,73.26
2018-09-10T04:16:49.706Z,73.39
2018-09-10T04:17:30.189Z,73
2018-09-10T04:18:10.467Z,72.63
2018-09-10T04:18:50.917Z,72.33
2018-09-10T04:19:31.340Z,72.05
2018-09-10T04:20:11.786Z,72.05
2018-09-10T04:20:52.174Z,72.24
2018-09-10T04:21:32.631Z,72.05
2018-09-10T04:22:13.004Z,71.47
2018-09-10T04:22:53.330Z,71.66
2018-09-10T04:23:34.000Z,71.19
2018-09-10T04:24:14.413Z,71.09
2018-09-10T04:24:54.823Z,70.8
2018-09-10T04:25:35.185Z,70.64
2018-09-10T04:26:15.568Z,70.74
2018-09-10T04:26:55.991Z,70.74
2018-09-10T04:27:36.353Z,69.87
2018-09-10T04:28:16.808Z,69.87
2018-09-10T05:06:18.245Z,70.55
2018-09-10T05:07:10.995Z,70.26
2018-09-10T05:08:03.439Z,70.49
2018-09-10T05:08:56.182Z,69.97
2018-09-10T05:09:48.480Z,70.36
2018-09-10T05:10:40.598Z,69.87
2018-09-10T05:11:33.145Z,70.17
2018-09-10T05:12:26.130Z,70.84
2018-09-10T05:13:18.600Z,70.84
2018-09-10T05:14:11.069Z,70.93
2018-09-10T05:15:03.863Z,70.45
2018-09-10T05:15:57.577Z,70.74
2018-09-10T05:16:49.722Z,70.93
2018-09-10T05:17:43.337Z,70.26
2018-09-10T05:18:36.881Z,70.17
2018-09-10T05:19:31.924Z,70.17
2018-09-10T05:20:26.651Z,69.97
2018-09-10T05:21:20.370Z,69.87
2018-09-10T05:22:17.748Z,70.2
2018-09-10T05:23:10.938Z,69.87
2018-09-10T05:25:56.945Z,71.64
2018-09-10T05:26:50.940Z,71.25
2018-09-10T05:27:43.076Z,71.35
2018-09-10T05:28:35.326Z,70.87
2018-09-10T05:29:27.302Z,70.29
2018-09-10T05:30:19.783Z,69.91
2018-09-10T05:31:12.418Z,70.39
2018-09-10T05:32:07.000Z,69.81
2018-09-10T05:32:59.510Z,70.01
2018-09-10T05:33:52.016Z,70.1
2018-09-10T05:34:45.805Z,69.91
2018-09-10T05:35:38.333Z,70.1
2018-09-10T05:36:30.658Z,70.39
2018-09-10T05:37:23.286Z,69.91
2018-09-10T05:38:15.965Z,69.91
2018-09-10T05:39:08.299Z,69.91
2018-09-10T05:40:00.852Z,70.1
2018-09-10T05:41:03.231Z,69.91
2018-09-10T05:41:55.888Z,70.1
2018-09-10T05:42:55.890Z,69.91
2018-09-10T05:43:55.307Z,70.29
2018-09-10T05:44:49.511Z,70.29
2018-09-10T05:45:38.360Z,70.29
2018-09-10T05:46:18.329Z,70.29
2018-09-10T05:46:58.931Z,69.91
2018-09-10T05:47:40.468Z,69.91
2018-09-10T05:48:21.074Z,69.85
2018-09-10T05:49:01.337Z,69.46
2018-09-10T05:51:05.676Z,70.14
2018-09-10T05:51:58.704Z,70.14
2018-09-10T05:52:53.278Z,70.23
2018-09-10T05:53:46.174Z,69.75
2018-09-10T05:54:38.501Z,69.85
2018-09-10T05:55:30.818Z,69.46
2018-09-10T05:56:23.432Z,69.85
2018-09-10T05:57:16.217Z,69.46
2018-09-10T05:58:12.042Z,69.75
2018-09-10T05:59:04.998Z,69.95
2018-09-10T05:59:57.938Z,69.75
2018-09-10T06:00:49.753Z,69.46
2018-09-10T06:01:41.919Z,69.27
2018-09-10T06:02:34.781Z,69.12
2018-09-10T06:03:28.348Z,69.27
2018-09-10T06:04:21.136Z,69.02
2018-09-10T06:05:14.376Z,69.4
2018-09-10T06:06:07.685Z,69.02
2018-09-10T06:06:52.552Z,68.44
2018-09-10T06:07:33.231Z,69.21
2018-09-10T06:08:14.807Z,68.73
2018-09-10T06:08:56.813Z,68.73
2018-09-10T06:09:37.258Z,68.63
2018-09-10T06:10:17.688Z,68.83
2018-09-10T06:10:58.344Z,68.44
2018-09-10T06:11:38.944Z,68.48
2018-09-10T06:12:19.446Z,68.48
2018-09-10T06:13:00.686Z,67.9
2018-09-10T06:13:40.627Z,68.38
2018-09-10T06:14:20.989Z,68.09
2018-09-10T06:15:01.481Z,68.29
2018-09-10T06:15:41.960Z,68.19
2018-09-10T06:16:22.542Z,68.29
2018-09-10T06:17:03.175Z,67.71
2018-09-10T06:17:43.892Z,67.32
2018-09-10T06:18:24.376Z,67.22
2018-09-10T06:19:04.689Z,67.51
2018-09-10T06:19:45.466Z,67.26
2018-09-10T06:20:25.997Z,67.35
2018-09-10T06:21:06.485Z,66.88
2018-09-10T06:21:47.022Z,67.74
2018-09-10T06:22:27.552Z,67.26
2018-09-10T06:23:08.005Z,66.68
2018-09-10T06:23:49.549Z,66.58
2018-09-10T06:24:30.651Z,66.88
2018-09-10T06:25:11.330Z,66.68
2018-09-10T06:25:51.814Z,67.26
2018-09-10T06:26:33.140Z,67.55
2018-09-10T06:27:14.046Z,67.26
2018-09-10T06:27:55.659Z,67.65
2018-09-10T06:28:36.767Z,66.78
2018-09-10T06:29:17.457Z,66.3
2018-09-10T06:30:00.028Z,66.58
2018-09-10T06:30:41.896Z,66.97
2018-09-10T06:31:25.686Z,66.49
2018-09-10T06:32:12.514Z,65.81
2018-09-10T06:32:54.788Z,66.1
2018-09-10T06:33:35.233Z,65.72
2018-09-10T06:34:16.430Z,65.91
2018-09-10T06:34:57.238Z,66.01
2018-09-10T06:35:39.861Z,65.81
2018-09-10T06:36:20.412Z,65.63
2018-09-10T06:37:01.526Z,65.66
2018-09-10T06:37:43.097Z,65.24
2018-09-10T06:38:29.336Z,65.81
2018-09-10T06:39:22.426Z,65.81
2018-09-10T06:40:25.106Z,65.46
2018-09-10T06:41:15.927Z,65.46
2018-09-10T06:44:16.518Z,65.37
2018-09-10T06:46:05.726Z,65.46
2018-09-10T06:46:48.542Z,65.75
2018-09-10T06:47:28.686Z,65.27
2018-09-10T06:48:10.148Z,65.46
2018-09-10T06:48:50.760Z,65.46
2018-09-10T06:49:31.458Z,64.69
2018-09-10T06:50:12.311Z,64.79
2018-09-10T06:50:53.830Z,64.79
2018-09-10T06:51:33.534Z,64.98
2018-09-10T06:52:13.955Z,64.98
2018-09-10T06:52:54.651Z,64.5
2018-09-10T06:53:35.131Z,64.21
2018-09-10T06:54:15.606Z,64.25
2018-09-10T06:54:56.217Z,64.63
2018-09-10T06:55:37.476Z,64.34
2018-09-10T06:56:17.902Z,64.53
2018-09-10T06:56:58.845Z,64.15
2018-09-10T06:57:40.049Z,63.85
2018-09-10T06:58:20.258Z,63.76
2018-09-10T06:59:00.929Z,63.95
2018-09-10T06:59:42.138Z,63.67
2018-09-10T07:00:23.738Z,63.85
2018-09-10T07:01:03.805Z,63.95
2018-09-10T07:01:44.699Z,63.95
2018-09-10T07:02:25.591Z,63.67
2018-09-10T07:03:08.695Z,63.85
2018-09-10T07:03:49.345Z,63.28
2018-09-10T07:04:31.049Z,62.99
2018-09-10T07:05:13.622Z,63.18
2018-09-10T07:07:07.042Z,62.73
2018-09-10T07:08:02.775Z,63.5
2018-09-10T07:08:56.212Z,62.83
2018-09-10T07:09:55.389Z,62.54
2018-09-10T07:10:56.013Z,63.02
2018-09-10T07:11:54.044Z,62.73
2018-09-10T07:12:40.279Z,62.63
2018-09-10T07:13:20.735Z,62.45
2018-09-10T07:14:01.774Z,62.45
2018-09-10T07:14:42.569Z,62.35
2018-09-10T07:15:23.463Z,61.48
2018-09-10T07:16:04.211Z,61.96
2018-09-10T07:16:44.986Z,61.9
2018-09-10T07:17:25.437Z,61.8
2018-09-10T07:18:06.195Z,61.77
2018-09-10T07:18:46.780Z,61.61
2018-09-10T07:19:27.136Z,61.8
2018-09-10T07:20:08.465Z,61.22
2018-09-10T07:20:48.732Z,60.93
2018-09-10T07:21:30.259Z,60.83
2018-09-10T07:22:10.041Z,61.03
2018-09-10T07:22:50.552Z,60.83
2018-09-10T07:23:30.935Z,60.35
2018-09-10T07:24:11.386Z,60.64
2018-09-10T07:24:52.636Z,60.45
2018-09-10T07:25:32.978Z,60.64
2018-09-10T07:26:13.597Z,60.74
2018-09-10T07:26:54.074Z,60.74
2018-09-10T07:27:34.583Z,61.13
2018-09-10T07:28:15.946Z,61.03
2018-09-10T07:28:55.656Z,61.06
2018-09-10T07:29:36.083Z,60.96
2018-09-10T07:30:16.513Z,60.28
2018-09-10T07:30:57.147Z,60.45
2018-09-10T07:31:38.463Z,60.38
2018-09-10T07:32:18.897Z,60.38
2018-09-10T07:32:59.321Z,60.1
2018-09-10T07:33:40.149Z,60
2018-09-10T07:34:20.526Z,59.52
2018-09-10T07:35:01.211Z,59.74
2018-09-10T07:35:41.691Z,59.61
2018-09-10T07:36:22.095Z,59.16
2018-09-10T07:37:02.570Z,59.64
2018-09-10T07:37:45.066Z,59.74
2018-09-10T07:38:25.583Z,59.74
2018-09-10T07:39:06.084Z,59.45
2018-09-10T07:39:46.646Z,59.55
2018-09-10T07:40:27.128Z,59.06
2018-09-10T07:41:07.647Z,58.97
2018-09-10T07:41:50.382Z,58.87
2018-09-10T07:42:31.107Z,58.97
2018-09-10T07:43:11.793Z,58.32
2018-09-10T07:43:53.691Z,58.8
2018-09-10T07:44:33.553Z,58.12
2018-09-10T07:45:14.625Z,57.93
2018-09-10T07:45:59.317Z,58.22
2018-09-10T07:46:40.581Z,57.87
2018-09-10T07:48:52.250Z,56.99
2018-09-10T07:49:52.627Z,56.35
2018-09-10T07:50:42.588Z,56.35
2018-09-10T07:51:22.564Z,56.05
2018-09-10T07:52:03.216Z,55.77
2018-09-10T07:52:43.830Z,55.57
2018-09-10T07:53:24.386Z,55.96
2018-09-10T07:54:05.241Z,55.87
2018-09-10T07:54:46.114Z,56.15
2018-09-10T07:55:27.377Z,56.25
2018-09-10T07:56:08.869Z,56.25
2018-09-10T07:56:48.480Z,55.96
2018-09-10T07:57:28.878Z,55.87
2018-09-10T07:58:09.382Z,55.67
2018-09-10T07:58:49.824Z,55.96
2018-09-10T07:59:30.346Z,55.93
2018-09-10T08:00:11.044Z,55.87
2018-09-10T08:00:51.515Z,55.87
2018-09-10T08:01:32.007Z,55.96
2018-09-10T08:02:13.186Z,55.47
2018-09-10T08:02:53.743Z,55.55
2018-09-10T08:03:34.156Z,55.47
2018-09-10T08:04:14.561Z,55.67
2018-09-10T08:04:55.071Z,56.03
2018-09-10T08:05:35.610Z,56.05
2018-09-10T08:06:16.566Z,55.67
2018-09-10T08:06:56.903Z,55.87
2018-09-10T08:07:37.413Z,55.09
2018-09-10T08:08:18.245Z,55.11
2018-09-10T08:08:59.623Z,54.44
2018-09-10T08:09:39.426Z,54.44
2018-09-10T08:10:19.883Z,54.44
2018-09-10T08:11:01.384Z,54.17
2018-09-10T08:11:41.443Z,53.89
2018-09-10T08:12:21.740Z,53.79
2018-09-10T08:13:02.524Z,53.23
2018-09-10T08:13:43.266Z,53.33
2018-09-10T08:14:23.843Z,52.66
2018-09-10T08:15:04.985Z,52.46
2018-09-10T08:15:45.814Z,51.88
2018-09-10T08:16:26.329Z,51.72
2018-09-10T08:17:07.891Z,51.9
2018-09-10T08:17:48.070Z,51.23
2018-09-10T08:18:28.329Z,51.04
2018-09-10T08:19:09.220Z,51.06
2018-09-10T08:19:49.781Z,50.48
2018-09-10T08:20:30.745Z,50.29
2018-09-10T08:21:11.316Z,49.54
2018-09-10T08:21:52.380Z,49.82
2018-09-10T08:22:32.213Z,49.54
2018-09-10T08:23:12.647Z,49.44
2018-09-10T08:23:53.087Z,49.34
2018-09-10T08:24:33.639Z,48.95
2018-09-10T08:25:14.247Z,49.44
2018-09-10T08:25:55.373Z,49.24
2018-09-10T08:26:35.417Z,49.24
2018-09-10T08:27:16.199Z,49.15
2018-09-10T08:27:57.535Z,48.69
2018-09-10T08:28:38.186Z,48.2
2018-09-10T08:29:18.294Z,48.97
2018-09-10T08:29:58.804Z,47.91
2018-09-10T08:30:40.391Z,47.72
2018-09-10T08:31:22.037Z,47.62
2018-09-10T08:32:03.391Z,47.81
2018-09-10T08:32:44.142Z,48.1
2018-09-10T08:33:24.354Z,48.22
2018-09-10T08:34:04.811Z,47.55
2018-09-10T08:34:45.415Z,47.55
2018-09-10T08:35:28.497Z,47.25
2018-09-10T08:36:08.627Z,46.77
2018-09-10T08:36:49.538Z,46.69
2018-09-10T08:37:29.700Z,45.92
2018-09-10T08:38:13.702Z,45.94
2018-09-10T08:39:04.379Z,45.65
2018-09-10T08:39:44.911Z,44.99
2018-09-10T08:40:25.876Z,44.89
2018-09-10T08:41:08.544Z,43.95
2018-09-10T08:41:52.889Z,43.75
2018-09-10T08:42:33.530Z,43.26
2018-09-10T08:43:13.747Z,43.09
2018-09-10T08:43:59.883Z,43.19
2018-09-10T08:46:24.720Z,42.24
2018-09-10T08:47:05.267Z,41.85
2018-09-10T08:47:46.747Z,41.94
2018-09-10T08:48:39.779Z,41.67
2018-09-10T08:50:29.002Z,40.91
2018-09-10T08:51:10.262Z,40.11
2018-09-10T08:51:50.966Z,40.72
2018-09-10T08:52:31.414Z,40.81
2018-09-10T08:53:11.918Z,39.18
2018-09-10T08:53:52.374Z,38.89
2018-09-10T08:54:33.056Z,38.98
2018-09-10T08:55:14.318Z,38.32
2018-09-10T08:55:54.262Z,37.63
2018-09-10T08:56:34.785Z,39.29
2018-09-10T08:57:15.291Z,38.4
2018-09-10T08:57:55.838Z,39.08
2018-09-10T08:58:36.352Z,39.37
2018-09-10T08:59:17.218Z,38.4
2018-09-10T08:59:57.922Z,38.59
2018-09-10T09:00:38.220Z,38.69
2018-09-10T09:01:18.661Z,39.08
2018-09-10T09:01:59.224Z,38.79
2018-09-10T09:02:39.643Z,38.4
2018-09-10T09:03:20.428Z,38.89
2018-09-10T09:04:00.998Z,38.18
2018-09-10T09:04:41.580Z,37.6
2018-09-10T09:05:23.383Z,39.36
2018-09-10T09:06:06.062Z,39.16
2018-09-10T09:06:45.573Z,39.75
2018-09-10T09:07:26.128Z,40.03
2018-09-10T09:08:06.529Z,39.45
2018-09-10T09:08:46.841Z,40.03
2018-09-10T09:09:27.313Z,39.62
2018-09-10T09:10:07.750Z,39.55
2018-09-10T09:10:48.632Z,38.65
2018-09-10T09:11:29.098Z,39.24
2018-09-10T09:12:09.705Z,39.53
2018-09-10T09:12:50.430Z,38.95
2018-09-10T09:15:07.801Z,39.53
2018-09-10T09:16:03.786Z,40.01
2018-09-10T09:16:44.726Z,40.11
2018-09-10T09:17:25.326Z,40.01
2018-09-10T09:18:05.690Z,40.6
2018-09-10T09:18:46.174Z,40.42
2018-09-10T09:19:26.639Z,39.65
2018-09-10T09:20:07.083Z,39.84
2018-09-10T09:20:48.386Z,39.75
2018-09-10T09:21:29.011Z,39.86
2018-09-10T09:22:09.495Z,39.86
2018-09-10T09:22:49.924Z,39.76
2018-09-10T09:23:31.284Z,39.94
2018-09-10T09:24:11.335Z,40.42
2018-09-10T09:24:51.940Z,40.33
2018-09-10T09:25:32.245Z,40.52
2018-09-10T09:26:12.842Z,40.33
2018-09-10T09:26:53.382Z,40.72
2018-09-10T09:27:33.764Z,40.91
2018-09-10T09:28:15.207Z,41.3
2018-09-10T09:30:17.634Z,40.81
2018-09-10T09:31:19.332Z,41.6
2018-09-10T09:32:15.610Z,41.79
2018-09-10T09:33:03.581Z,41.81
2018-09-10T09:33:44.119Z,40.73
2018-09-10T09:34:25.003Z,40.64
2018-09-10T09:35:05.425Z,39.67
2018-09-10T09:35:49.381Z,39.39
2018-09-10T09:36:31.204Z,39.69
2018-09-10T09:38:45.499Z,38.82
2018-09-10T09:39:26.251Z,38.43
2018-09-10T09:40:06.638Z,38.73
2018-09-10T09:40:48.560Z,37.65
2018-09-10T09:41:29.191Z,36.8
2018-09-10T09:42:10.031Z,36.51
2018-09-10T09:42:50.739Z,37.11
2018-09-10T09:43:31.548Z,36.52
2018-09-10T09:45:35.920Z,37.29
2018-09-10T09:46:27.714Z,37.19
2018-09-10T09:47:22.394Z,37.27
2018-09-10T09:48:05.627Z,37.65
2018-09-10T09:48:47.491Z,37.65
2018-09-10T09:49:27.519Z,37.55
2018-09-10T09:50:07.930Z,37.65
2018-09-10T09:50:50.193Z,38.53
2018-09-10T09:51:39.036Z,37.57
2018-09-10T09:53:48.201Z,35.94
2018-09-10T09:56:30.814Z,35.66
2018-09-10T09:57:24.604Z,35.85
2018-09-10T09:58:21.184Z,35.75
2018-09-10T09:59:24.801Z,35.85
2018-09-10T10:00:29.099Z,35.68
2018-09-10T10:01:08.624Z,35.97
2018-09-10T10:01:49.262Z,35.89